Time;durP1;ratioP1;P1;durP2;ratioP2;P2;SDS_P1;SDS_P2;PMS_P1;PMS_P2;Temp;Humidity;BMP_temperature;BMP_pressure;BME280_temperature;BME280_humidity;BME280_pressure;Samples;Min_cycle;Max_cycle;Signal;HPM_P1;HPM_P2
2021/05/11 00:02:21;;;;;;;8.03;4.20;;;12.30;99.90;;;;;;5056886;28;20497;-91
2021/05/11 00:04:48;;;;;;;5.43;4.93;;;;;;;;;;5055497;28;20804;-91
2021/05/11 00:07:15;;;;;;;5.83;5.17;;;;;;;;;;5056177;28;20450;-92
2021/05/11 00:09:41;;;;;;;5.47;4.90;;;;;;;;;;5055378;28;20485;-88
2021/05/11 00:12:08;;;;;;;6.37;5.77;;;11.90;99.90;;;;;;5055099;28;20827;-92
2021/05/11 00:14:35;;;;;;;4.70;4.30;;;;;;;;;;5054918;28;20439;-90
2021/05/11 00:17:01;;;;;;;6.43;5.60;;;;;;;;;;5055821;28;20484;-88
2021/05/11 00:19:29;;;;;;;5.50;4.80;;;11.90;99.90;;;;;;5055364;28;20806;-92
2021/05/11 00:21:56;;;;;;;5.30;4.77;;;11.70;99.90;;;;;;5055345;28;20439;-88
2021/05/11 00:24:22;;;;;;;6.87;6.17;;;;;;;;;;5055292;28;20454;-90
2021/05/11 00:26:49;;;;;;;6.90;6.20;;;;;;;;;;5055587;28;20450;-92
2021/05/11 00:29:16;;;;;;;7.13;6.43;;;;;;;;;;5054322;28;20470;-91
2021/05/11 00:31:42;;;;;;;8.97;7.00;;;;;;;;;;5055348;28;20454;-91
2021/05/11 00:34:09;;;;;;;8.77;7.40;;;;;;;;;;5055289;28;20926;-91
2021/05/11 00:36:36;;;;;;;8.27;6.83;;;12.00;99.90;;;;;;5055055;28;20442;-91
2021/05/11 00:39:03;;;;;;;10.50;7.87;;;12.10;99.90;;;;;;5054843;28;20790;-90
2021/05/11 00:41:30;;;;;;;8.77;7.60;;;;;;;;;;5054744;28;20473;-91
2021/05/11 00:43:57;;;;;;;9.93;8.10;;;;;;;;;;5051400;28;20461;-90
2021/05/11 00:46:25;;;;;;;9.97;8.03;;;;;;;;;;5054749;28;20438;-91
2021/05/11 00:48:52;;;;;;;8.93;7.60;;;;;;;;;;5055292;28;20443;-91
2021/05/11 00:51:19;;;;;;;10.23;7.93;;;;;;;;;;5055174;28;20926;-90
2021/05/11 00:53:46;;;;;;;10.20;7.40;;;11.90;99.90;;;;;;5054806;28;20809;-89
2021/05/11 00:56:13;;;;;;;10.53;7.73;;;;;;;;;;5093312;28;20811;-89
2021/05/11 00:58:40;;;;;;;8.80;7.40;;;;;;;;;;5091896;28;20468;-90
2021/05/11 01:01:07;;;;;;;9.20;7.30;;;;;;;;;;5092905;28;21018;-88
2021/05/11 01:03:33;;;;;;;9.07;6.93;;;11.50;99.90;;;;;;5092052;28;20452;-91
2021/05/11 01:06:00;;;;;;;7.27;6.57;;;;;;;;;;5087223;28;20480;-89
2021/05/11 01:08:26;;;;;;;8.23;7.27;;;;;;;;;;5092944;28;20468;-89
2021/05/11 01:10:54;;;;;;;8.40;7.10;;;11.80;99.90;;;;;;5092303;28;20563;-91
2021/05/11 01:13:20;;;;;;;7.13;5.80;;;;;;;;;;5086970;28;20487;-89
2021/05/11 01:15:49;;;;;;;9.10;6.00;;;12.00;99.90;;;;;;5054197;28;20451;-89
2021/05/11 01:18:25;;;;;;;6.63;5.93;;;11.70;99.90;;;;;;5053886;28;20485;-90
2021/05/11 01:20:52;;;;;;;6.90;5.20;;;11.60;99.90;;;;;;5054301;28;20792;-88
2021/05/11 01:26:09;;;;;;;6.00;5.40;;;12.00;99.90;;;;;;5060011;28;20438;-88
2021/05/11 01:28:49;;;;;;;7.70;5.90;;;;;;;;;;5064251;28;20522;-87
2021/05/11 01:31:42;;;;;;;7.03;5.77;;;11.90;99.90;;;;;;5056141;28;20497;-92
2021/05/11 01:45:35;;;;;;;9.53;7.40;;;11.90;99.90;;;;;;5053646;28;20430;-91
2021/05/11 01:48:14;;;;;;;8.03;6.10;;;11.60;99.90;;;;;;5054173;28;20473;-91
2021/05/11 01:50:45;;;;;;;9.37;7.27;;;11.80;99.90;;;;;;5054109;28;20489;-92
2021/05/11 01:53:42;;;;;;;8.13;6.53;;;;;;;;;;5054140;28;20481;-93
2021/05/11 01:56:25;;;;;;;10.00;7.33;;;11.70;99.90;;;;;;5053761;28;20473;-90
2021/05/11 02:10:31;;;;;;;10.87;7.70;;;;;;;;;;5054226;28;20571;-87
2021/05/11 02:23:53;;;;;;;14.13;10.77;;;;;;;;;;5056218;28;20464;-91
2021/05/11 02:26:20;;;;;;;14.00;9.87;;;;;;;;;;5057853;28;20473;-88
2021/05/11 02:28:48;;;;;;;13.03;9.90;;;10.80;99.90;;;;;;5056655;28;20497;-89
2021/05/11 02:31:15;;;;;;;13.40;9.83;;;;;;;;;;5056615;28;20896;-90
2021/05/11 02:33:42;;;;;;;14.10;8.80;;;;;;;;;;5056483;28;20938;-88
2021/05/11 02:36:08;;;;;;;11.17;9.03;;;11.20;99.90;;;;;;5056306;28;20446;-91
2021/05/11 02:38:35;;;;;;;14.13;9.30;;;;;;;;;;5056681;28;20860;-89
2021/05/11 02:41:01;;;;;;;14.57;9.47;;;;;;;;;;5056985;28;20439;-91
2021/05/11 02:43:31;;;;;;;14.70;9.50;;;;;;;;;;5056536;28;20582;-89
2021/05/11 02:46:00;;;;;;;11.97;8.57;;;11.40;99.90;;;;;;5056310;28;20451;-90
2021/05/11 02:48:27;;;;;;;12.37;8.47;;;;;;;;;;5056147;28;20434;-90
2021/05/11 02:50:54;;;;;;;13.50;10.00;;;;;;;;;;5056171;28;20486;-89
2021/05/11 02:53:20;;;;;;;13.70;9.13;;;;;;;;;;5056304;28;20462;-92
2021/05/11 02:55:47;;;;;;;11.40;8.60;;;;;;;;;;5056447;28;20455;-90
2021/05/11 02:58:14;;;;;;;12.90;8.23;;;;;;;;;;5070232;28;20473;-90
2021/05/11 03:00:42;;;;;;;12.03;9.03;;;;;;;;;;5061286;28;20446;-90
2021/05/11 03:03:09;;;;;;;10.07;8.23;;;11.30;99.90;;;;;;5056381;28;20427;-90
2021/05/11 03:05:36;;;;;;;11.27;8.50;;;;;;;;;;5055993;28;20973;-88
2021/05/11 03:08:03;;;;;;;12.80;8.93;;;11.10;99.90;;;;;;5055792;28;20546;-91
2021/05/11 03:10:29;;;;;;;12.20;8.20;;;;;;;;;;5056309;28;20482;-92
2021/05/11 03:12:56;;;;;;;12.60;7.73;;;;;;;;;;5055244;28;20458;-90
2021/05/11 03:15:22;;;;;;;12.93;8.23;;;;;;;;;;5055892;28;20450;-89
2021/05/11 03:17:49;;;;;;;11.87;8.60;;;;;;;;;;5056058;28;20446;-87
2021/05/11 03:20:17;;;;;;;13.67;8.87;;;11.20;99.90;;;;;;5056335;28;20439;-89
2021/05/11 03:22:44;;;;;;;13.00;7.97;;;;;;;;;;5057009;28;20457;-91
2021/05/11 03:25:11;;;;;;;15.13;8.10;;;11.30;99.90;;;;;;5056681;28;20812;-88
2021/05/11 03:27:37;;;;;;;10.47;7.07;;;;;;;;;;5055844;28;20451;-88
2021/05/11 03:30:06;;;;;;;11.40;7.90;;;11.20;99.90;;;;;;5054358;28;20486;-88
2021/05/11 03:32:32;;;;;;;14.80;9.60;;;;;;;;;;5055234;28;20946;-89
2021/05/11 03:34:59;;;;;;;13.13;9.17;;;;;;;;;;5055054;28;20451;-89
2021/05/11 03:37:26;;;;;;;16.20;10.03;;;11.10;99.90;;;;;;5055617;28;20511;-91
2021/05/11 03:39:53;;;;;;;12.70;8.80;;;;;;;;;;5056433;28;20450;-90
2021/05/11 03:42:24;;;;;;;13.07;9.13;;;11.20;99.90;;;;;;5055518;28;20441;-89
2021/05/11 03:44:54;;;;;;;13.73;8.77;;;11.20;99.90;;;;;;5054852;28;20473;-89
2021/05/11 03:47:22;;;;;;;14.00;9.67;;;;;;;;;;5059049;28;20495;-91
2021/05/11 03:49:48;;;;;;;16.40;8.87;;;;;;;;;;5055728;28;20559;-91
2021/05/11 03:52:15;;;;;;;16.80;9.90;;;;;;;;;;5055735;28;20523;-91
2021/05/11 03:54:42;;;;;;;14.93;10.03;;;11.20;99.90;;;;;;5055131;28;20954;-90
2021/05/11 03:57:09;;;;;;;13.63;9.13;;;;;;;;;;5055417;28;20545;-89
2021/05/11 03:59:36;;;;;;;14.97;9.90;;;;;;;;;;5054161;28;20501;-90
2021/05/11 04:02:03;;;;;;;16.97;10.77;;;;;;;;;;5055229;28;20853;-92
2021/05/11 04:04:29;;;;;;;16.37;10.53;;;;;;;;;;5055076;28;20458;-89
2021/05/11 04:06:56;;;;;;;17.80;10.80;;;;;;;;;;5054552;28;20454;-90
2021/05/11 04:09:27;;;;;;;16.20;10.73;;;;;;;;;;5054946;28;20434;-88
2021/05/11 04:12:13;;;;;;;18.20;11.03;;;11.50;99.90;;;;;;5054449;28;20453;-88
2021/05/11 04:17:30;;;;;;;14.33;10.40;;;;;;;;;;5054970;28;20465;-90
2021/05/11 04:19:57;;;;;;;17.83;12.00;;;;;;;;;;5054503;28;20442;-90
2021/05/11 04:22:23;;;;;;;19.10;12.07;;;;;;;;;;5054843;28;20451;-90
2021/05/11 04:24:50;;;;;;;17.60;11.07;;;;;;;;;;5055238;28;20442;-88
2021/05/11 04:27:17;;;;;;;19.10;11.40;;;11.60;99.90;;;;;;5066482;28;20446;-88
2021/05/11 04:29:47;;;;;;;17.90;11.20;;;;;;;;;;5058786;28;20486;-89
2021/05/11 04:32:13;;;;;;;19.07;12.33;;;;;;;;;;5039301;28;21008;-88
2021/05/11 04:34:40;;;;;;;20.23;12.27;;;;;;;;;;5033790;28;20930;-90
2021/05/11 04:37:08;;;;;;;18.73;12.33;;;;;;;;;;5044505;28;20442;-92
2021/05/11 04:39:35;;;;;;;17.30;11.80;;;;;;;;;;5043012;28;20456;-89
2021/05/11 04:42:05;;;;;;;16.20;11.63;;;;;;;;;;5042874;28;20450;-90
2021/05/11 04:44:33;;;;;;;16.20;12.13;;;11.80;99.90;;;;;;5040950;28;20440;-89
2021/05/11 04:47:08;;;;;;;14.93;11.07;;;;;;;;;;5042067;28;20473;-90
2021/05/11 04:49:35;;;;;;;19.80;12.43;;;;;;;;;;5039477;28;20508;-89
2021/05/11 04:52:06;;;;;;;18.90;12.93;;;11.90;99.90;;;;;;5043944;28;20796;-87
2021/05/11 04:54:33;;;;;;;21.03;13.20;;;;;;;;;;5043491;28;20953;-90
2021/05/11 04:57:00;;;;;;;19.93;12.20;;;;;;;;;;5042803;28;20459;-88
2021/05/11 04:59:27;;;;;;;18.17;11.80;;;;;;;;;;5040399;28;20902;-88
2021/05/11 05:01:56;;;;;;;20.60;13.07;;;11.90;99.90;;;;;;5043714;28;20446;-89
2021/05/11 05:04:23;;;;;;;19.30;11.77;;;;;;;;;;5044019;28;20971;-88
2021/05/11 05:06:49;;;;;;;17.73;12.10;;;;;;;;;;5041521;28;20994;-90
2021/05/11 05:09:16;;;;;;;22.73;13.30;;;;;;;;;;5043713;28;20435;-89
2021/05/11 05:11:51;;;;;;;17.87;12.30;;;;;;;;;;5044956;28;20946;-89
2021/05/11 05:14:18;;;;;;;21.10;13.13;;;;;;;;;;5041304;28;20438;-88
2021/05/11 05:16:44;;;;;;;22.70;13.30;;;;;;;;;;5039081;28;20454;-92
2021/05/11 05:19:16;;;;;;;22.43;13.57;;;12.00;99.90;;;;;;5043336;28;20428;-89
2021/05/11 05:21:42;;;;;;;20.23;12.70;;;;;;;;;;5042523;28;20470;-90
2021/05/11 05:24:12;;;;;;;20.97;13.50;;;;;;;;;;5036445;28;20459;-89
2021/05/11 05:26:39;;;;;;;20.97;14.03;;;;;;;;;;5033072;28;20498;-91
2021/05/11 05:29:05;;;;;;;20.20;14.00;;;;;;;;;;5031755;28;20479;-90
2021/05/11 05:31:32;;;;;;;16.33;12.77;;;;;;;;;;5033471;28;20495;-89
2021/05/11 05:33:59;;;;;;;19.37;12.87;;;;;;;;;;5033922;28;20497;-87
2021/05/11 05:36:26;;;;;;;22.97;13.57;;;12.00;99.90;;;;;;5034070;28;20943;-88
2021/05/11 05:38:53;;;;;;;19.93;13.33;;;;;;;;;;5033794;28;20501;-89
2021/05/11 05:41:22;;;;;;;19.00;13.17;;;;;;;;;;5035567;28;20448;-91
2021/05/11 05:43:49;;;;;;;20.03;13.10;;;;;;;;;;5033348;28;20505;-88
2021/05/11 05:46:16;;;;;;;18.63;12.50;;;;;;;;;;5035718;28;20435;-90
2021/05/11 05:48:43;;;;;;;14.70;11.70;;;;;;;;;;5036472;28;20448;-89
2021/05/11 05:51:10;;;;;;;19.27;12.03;;;;;;;;;;5035900;28;20575;-90
2021/05/11 05:53:39;;;;;;;15.77;11.70;;;12.20;99.90;;;;;;5035382;28;20463;-91
2021/05/11 05:56:06;;;;;;;17.93;11.60;;;12.30;99.90;;;;;;5034241;28;20474;-91
2021/05/11 05:58:33;;;;;;;19.50;12.80;;;;;;;;;;5046943;28;20465;-88
2021/05/11 06:01:02;;;;;;;19.87;13.50;;;;;;;;;;5047903;28;20451;-88
2021/05/11 06:03:37;;;;;;;15.47;11.40;;;;;;;;;;5045865;28;20466;-87
2021/05/11 06:06:04;;;;;;;15.70;10.50;;;12.20;99.90;;;;;;5041522;28;20493;-88
2021/05/11 06:08:31;;;;;;;16.80;11.40;;;12.20;99.90;;;;;;5039883;28;20978;-90
2021/05/11 06:11:04;;;;;;;16.03;10.87;;;12.80;99.90;;;;;;5038815;28;20495;-91
2021/05/11 06:13:36;;;;;;;18.90;11.70;;;;;;;;;;5035638;28;20517;-91
2021/05/11 06:18:56;;;;;;;17.07;10.40;;;;;;;;;;5013296;28;20482;-88
2021/05/11 06:21:23;;;;;;;17.07;9.23;;;;;;;;;;5038970;28;20447;-88
2021/05/11 06:23:49;;;;;;;17.20;11.33;;;;;;;;;;5039055;28;20447;-89
2021/05/11 06:26:16;;;;;;;16.33;11.13;;;12.40;99.90;;;;;;5038754;28;20497;-88
2021/05/11 06:28:44;;;;;;;15.87;10.13;;;;;;;;;;5036789;28;20459;-90
2021/05/11 06:31:11;;;;;;;17.40;10.67;;;;;;;;;;5038260;28;20498;-90
2021/05/11 06:33:37;;;;;;;15.87;10.87;;;;;;;;;;5037509;28;20459;-89
2021/05/11 06:36:04;;;;;;;17.50;10.83;;;;;;;;;;5037469;28;20454;-89
2021/05/11 06:38:32;;;;;;;15.70;10.10;;;12.70;99.90;;;;;;5038660;28;20498;-89
2021/05/11 06:40:59;;;;;;;19.00;11.40;;;;;;;;;;5038534;28;20481;-91
2021/05/11 06:43:28;;;;;;;13.80;9.47;;;12.90;99.90;;;;;;5037179;28;20455;-89
2021/05/11 06:48:47;;;;;;;15.43;11.27;;;;;;;;;;5038162;28;20431;-88
2021/05/11 06:53:58;;;;;;;13.00;9.20;;;;;;;;;;5036976;28;20431;-91
2021/05/11 06:56:25;;;;;;;13.60;9.40;;;;;;;;;;5036154;28;20479;-90
2021/05/11 06:58:52;;;;;;;14.97;10.00;;;13.20;99.90;;;;;;5036548;28;20448;-90
2021/05/11 07:01:21;;;;;;;14.50;10.10;;;;;;;;;;5038704;28;20450;-90
2021/05/11 07:03:47;;;;;;;13.57;10.93;;;;;;;;;;5036735;28;20463;-88
2021/05/11 07:06:15;;;;;;;14.33;10.50;;;;;;;;;;5038013;28;20487;-93
2021/05/11 07:08:44;;;;;;;13.50;10.93;;;;;;;;;;5036716;28;20526;-89
2021/05/11 07:11:26;;;;;;;12.60;9.60;;;;;;;;;;5036688;28;21017;-90
2021/05/11 07:13:52;;;;;;;12.17;10.13;;;13.20;99.90;;;;;;5035841;28;20445;-92
2021/05/11 07:16:19;;;;;;;12.73;9.83;;;;;;;;;;5037508;28;20448;-92
2021/05/11 07:18:46;;;;;;;15.83;10.80;;;;;;;;;;5036465;28;20448;-90
2021/05/11 07:21:12;;;;;;;10.50;8.60;;;;;;;;;;5036762;28;20454;-90
2021/05/11 07:23:39;;;;;;;11.80;9.23;;;;;;;;;;5036137;28;20450;-91
2021/05/11 07:26:11;;;;;;;11.00;8.83;;;;;;;;;;5037023;28;20535;-90
2021/05/11 07:28:46;;;;;;;10.40;8.90;;;13.50;99.90;;;;;;5044089;28;20451;-89
2021/05/11 07:31:15;;;;;;;11.23;8.80;;;13.60;99.90;;;;;;5045907;28;20498;-90
2021/05/11 07:33:43;;;;;;;12.00;9.33;;;;;;;;;;5036047;28;20969;-91
2021/05/11 07:36:10;;;;;;;12.87;9.30;;;;;;;;;;5035561;28;21033;-93
2021/05/11 07:38:37;;;;;;;18.07;8.87;;;;;;;;;;5035501;28;20923;-90
2021/05/11 07:41:04;;;;;;;13.63;10.87;;;13.80;99.90;;;;;;5036847;28;20462;-91
2021/05/11 07:43:32;;;;;;;10.70;8.93;;;;;;;;;;5034566;28;20443;-91
2021/05/11 08:03:12;;;;;;;11.80;9.40;;;;;;;;;;5038877;28;20438;-91
2021/05/11 08:05:53;;;;;;;12.63;9.30;;;13.90;99.90;;;;;;5038190;28;20566;-91
2021/05/11 08:16:33;;;;;;;7.90;7.10;;;;;;;;;;5037209;28;20455;-89
2021/05/11 08:19:06;;;;;;;8.00;7.20;;;;;;;;;;5042022;28;20450;-90
2021/05/11 08:22:05;;;;;;;6.37;5.67;;;14.30;99.90;;;;;;5039460;28;20495;-90
2021/05/11 08:27:38;;;;;;;6.90;6.20;;;;;;;;;;5038707;28;20450;-91
2021/05/11 08:30:05;;;;;;;7.53;6.73;;;;;;;;;;5037008;28;20545;-88
2021/05/11 08:32:32;;;;;;;6.77;6.00;;;;;;;;;;5040027;28;20452;-89
2021/05/11 08:34:58;;;;;;;6.97;6.33;;;;;;;;;;5038410;28;20450;-90
2021/05/11 08:37:25;;;;;;;8.10;7.30;;;15.10;99.90;;;;;;5038130;28;20482;-92
2021/05/11 08:39:52;;;;;;;7.63;5.73;;;;;;;;;;5038888;28;20451;-92
2021/05/11 08:42:19;;;;;;;6.63;5.47;;;;;;;;;;5038740;28;20455;-92
2021/05/11 08:44:45;;;;;;;6.53;5.87;;;;;;;;;;5038905;28;20802;-91
2021/05/11 08:47:12;;;;;;;6.23;5.10;;;;;;;;;;5039202;28;20447;-90
2021/05/11 08:49:39;;;;;;;5.90;5.00;;;;;;;;;;5038288;28;20474;-89
2021/05/11 08:52:16;;;;;;;6.40;4.70;;;;;;;;;;5039472;28;20455;-89
2021/05/11 08:55:04;;;;;;;4.20;3.73;;;15.80;99.90;;;;;;5036395;28;20558;-90
2021/05/11 09:06:10;;;;;;;7.10;4.50;;;;;;;;;;5037942;28;20467;-89
2021/05/11 09:25:39;;;;;;;6.53;4.50;;;;;;;;;;5038688;28;20867;-89
2021/05/11 09:28:28;;;;;;;5.30;4.80;;;15.80;99.90;;;;;;5039168;28;20447;-90
2021/05/11 09:31:02;;;;;;;5.30;4.80;;;;;;;;;;5039222;28;20499;-89
2021/05/11 09:33:32;;;;;;;5.73;5.13;;;;;;;;;;5038223;28;20450;-89
2021/05/11 09:56:14;;;;;;;6.10;4.40;;;;;;;;;;5039832;28;20474;-90
2021/05/11 10:42:38;;;;;;;5.87;5.13;;;17.30;99.90;;;;;;5034504;28;20443;-91
2021/05/11 10:48:21;;;;;;;7.70;6.90;;;17.10;99.90;;;;;;5036407;28;20485;-90
2021/05/11 10:50:49;;;;;;;9.50;7.00;;;17.30;99.90;;;;;;5037114;28;20487;-90
2021/05/11 10:53:55;;;;;;;7.67;6.80;;;16.70;99.90;;;;;;5037413;28;20466;-90
2021/05/11 10:56:51;;;;;;;9.13;8.23;;;17.30;99.90;;;;;;5038113;28;20446;-92
2021/05/11 10:59:25;;;;;;;8.03;7.00;;;17.20;99.90;;;;;;5036784;28;20451;-90
2021/05/11 11:01:56;;;;;;;7.90;6.70;;;;;;;;;;5037873;28;20582;-91
2021/05/11 11:04:23;;;;;;;10.10;6.60;;;17.10;99.90;;;;;;5039362;28;20463;-91
2021/05/11 11:07:07;;;;;;;12.80;8.80;;;17.10;99.90;;;;;;5038518;28;20871;-91
2021/05/11 11:09:34;;;;;;;7.27;6.43;;;17.00;99.90;;;;;;5038095;28;20447;-88
2021/05/11 11:12:03;;;;;;;7.03;6.33;;;17.20;99.90;;;;;;5037667;28;20490;-93
2021/05/11 11:14:37;;;;;;;7.90;7.10;;;17.70;99.90;;;;;;5036748;28;20451;-91
2021/05/11 11:17:06;;;;;;;9.07;7.50;;;17.90;99.90;;;;;;5037624;28;20432;-89
2021/05/11 11:19:32;;;;;;;8.80;7.33;;;18.80;99.90;;;;;;5037370;28;20443;-92
2021/05/11 11:23:32;;;;;;;8.97;6.80;;;;;;;;;;5037410;28;20553;-91
2021/05/11 11:24:47;;;;;;;7.23;6.53;;;;;;;;;;5038416;28;20467;-90
2021/05/11 11:27:14;;;;;;;8.13;7.33;;;19.10;99.90;;;;;;5037465;28;20447;-91
2021/05/11 11:29:43;;;;;;;7.00;6.00;;;;;;;;;;5034567;28;20973;-93
2021/05/11 11:32:09;;;;;;;6.57;5.97;;;;;;;;;;5035336;28;20499;-91
2021/05/11 11:34:36;;;;;;;6.50;5.90;;;;;;;;;;5035439;28;20448;-91
2021/05/11 11:37:06;;;;;;;5.97;4.97;;;20.50;99.90;;;;;;5036515;28;20455;-92
2021/05/11 11:39:35;;;;;;;6.43;5.83;;;20.60;99.90;;;;;;5036967;28;20462;-91
2021/05/11 11:42:04;;;;;;;5.63;4.97;;;21.10;99.90;;;;;;5036399;28;20815;-91
2021/05/11 11:44:35;;;;;;;5.30;4.90;;;21.30;99.90;;;;;;5035829;28;20454;-91
2021/05/11 11:47:04;;;;;;;4.20;3.90;;;20.50;99.90;;;;;;5036869;28;20467;-91
2021/05/11 11:49:32;;;;;;;4.93;4.43;;;20.10;99.90;;;;;;5035950;28;20661;-91
2021/05/11 11:52:03;;;;;;;5.17;4.77;;;20.90;99.90;;;;;;5036536;28;20495;-90
2021/05/11 11:54:36;;;;;;;3.80;3.33;;;;;;;;;;5036710;28;20483;-91
2021/05/11 11:59:59;;;;;;;4.67;4.27;;;21.40;99.90;;;;;;5047486;28;20437;-90
2021/05/11 12:02:26;;;;;;;4.60;4.03;;;;;;;;;;5041195;28;20455;-89
2021/05/11 12:04:53;;;;;;;3.93;3.63;;;;;;;;;;5036012;28;20483;-91
2021/05/11 12:07:21;;;;;;;6.17;3.93;;;;;;;;;;5038072;28;20513;-91
2021/05/11 12:09:48;;;;;;;3.70;3.40;;;;;;;;;;5037374;28;20460;-90
2021/05/11 12:12:16;;;;;;;3.80;3.23;;;20.00;99.90;;;;;;5036716;28;20478;-91
2021/05/11 12:14:42;;;;;;;3.40;3.20;;;;;;;;;;5035198;28;20452;-91
2021/05/11 12:17:10;;;;;;;3.00;2.80;;;19.40;99.90;;;;;;5034220;28;20439;-91
2021/05/11 12:19:43;;;;;;;5.40;2.30;;;;;;;;;;5037046;28;20450;-92
2021/05/11 12:22:10;;;;;;;3.00;2.20;;;;;;;;;;5035914;28;20542;-91
2021/05/11 12:24:37;;;;;;;4.10;2.10;;;19.20;99.90;;;;;;5035425;28;20462;-92
2021/05/11 12:27:12;;;;;;;2.80;1.90;;;19.00;99.90;;;;;;5035739;28;20439;-92
2021/05/11 12:29:38;;;;;;;1.90;1.80;;;;;;;;;;5033777;28;20930;-90
2021/05/11 12:32:05;;;;;;;2.33;2.13;;;19.00;99.90;;;;;;5035437;28;20499;-90
2021/05/11 12:34:32;;;;;;;1.63;1.53;;;18.70;99.90;;;;;;5036040;28;20447;-92
2021/05/11 12:37:01;;;;;;;2.30;1.93;;;18.80;99.90;;;;;;5036459;28;20452;-91
2021/05/11 12:39:36;;;;;;;2.03;1.70;;;18.70;99.90;;;;;;5037227;28;20458;-92
2021/05/11 12:42:19;;;;;;;2.10;1.60;;;18.90;99.90;;;;;;5036826;28;20459;-90
2021/05/11 12:44:46;;;;;;;2.30;2.10;;;18.50;99.90;;;;;;5036131;28;20443;-90
2021/05/11 12:47:15;;;;;;;4.10;2.20;;;18.40;99.90;;;;;;5036815;28;20881;-89
2021/05/11 12:49:43;;;;;;;2.10;1.93;;;18.20;99.90;;;;;;5044010;28;20800;-91
2021/05/11 12:52:11;;;;;;;2.13;2.03;;;;;;;;;;5038705;28;20852;-90
2021/05/11 12:54:45;;;;;;;1.80;1.70;;;18.00;99.90;;;;;;5038309;28;20534;-92
2021/05/11 12:57:24;;;;;;;2.10;1.90;;;;;;;;;;5036876;28;20465;-91
2021/05/11 12:59:55;;;;;;;1.97;1.87;;;17.80;99.90;;;;;;5036827;28;20447;-92
2021/05/11 13:02:39;;;;;;;2.30;2.10;;;17.50;99.90;;;;;;5037353;28;20914;-89
2021/05/11 13:13:59;;;;;;;5.27;3.07;;;;;;;;;;5037314;28;20426;-91
2021/05/11 13:16:29;;;;;;;2.53;2.33;;;16.30;99.90;;;;;;5037935;28;20943;-90
2021/05/11 13:22:05;;;;;;;2.80;2.63;;;16.00;99.90;;;;;;5038315;28;20433;-92
2021/05/11 13:27:23;;;;;;;3.97;3.67;;;;;;;;;;5036693;28;20458;-90
2021/05/11 13:30:11;;;;;;;5.23;4.10;;;;;;;;;;5046259;28;20446;-87
2021/05/11 13:32:50;;;;;;;4.57;4.17;;;;;;;;;;5039431;28;21064;-90
2021/05/11 13:35:17;;;;;;;5.77;5.27;;;;;;;;;;5035263;28;20447;-90
2021/05/11 13:37:44;;;;;;;7.77;5.27;;;15.40;99.90;;;;;;5034788;28;20455;-91
2021/05/11 13:40:11;;;;;;;5.73;5.33;;;15.40;99.90;;;;;;5036107;28;20617;-90
2021/05/11 13:42:38;;;;;;;6.07;5.63;;;15.30;99.90;;;;;;5035832;28;20481;-88
2021/05/11 13:45:05;;;;;;;7.90;7.17;;;15.30;99.90;;;;;;5034647;28;20456;-90
2021/05/11 13:47:32;;;;;;;7.40;6.87;;;;;;;;;;5035911;28;20458;-89
2021/05/11 13:50:01;;;;;;;7.20;6.70;;;;;;;;;;5034027;28;20787;-90
2021/05/11 13:52:27;;;;;;;7.63;6.83;;;15.60;99.90;;;;;;5033888;28;20566;-91
2021/05/11 13:54:57;;;;;;;7.70;7.10;;;15.40;99.90;;;;;;5034358;28;20800;-87
2021/05/11 14:01:31;;;;;;;7.20;6.60;;;;;;;;;;5034468;28;20444;-92
2021/05/11 14:03:03;;;;;;;6.50;5.87;;;15.10;99.90;;;;;;5035520;28;20446;-90
2021/05/11 14:05:30;;;;;;;5.37;4.90;;;;;;;;;;5034856;28;20476;-89
2021/05/11 14:07:56;;;;;;;6.43;4.93;;;;;;;;;;5036355;28;20464;-89
2021/05/11 14:10:23;;;;;;;4.83;4.43;;;14.80;99.90;;;;;;5035968;28;20537;-88
2021/05/11 14:12:50;;;;;;;4.67;4.27;;;14.70;99.90;;;;;;5035281;28;20467;-89
2021/05/11 14:15:16;;;;;;;4.70;4.30;;;;;;;;;;5034374;28;20450;-90
2021/05/11 14:17:43;;;;;;;4.50;4.13;;;;;;;;;;5035252;28;20466;-90
2021/05/11 14:20:11;;;;;;;4.77;4.37;;;14.20;99.90;;;;;;5039294;28;20458;-91
2021/05/11 14:22:39;;;;;;;4.30;3.90;;;;;;;;;;5039807;28;20454;-94
2021/05/11 14:25:07;;;;;;;6.20;4.90;;;14.30;99.90;;;;;;5039066;28;20451;-89
2021/05/11 14:27:34;;;;;;;4.80;4.30;;;13.80;99.90;;;;;;5039263;28;20939;-91
2021/05/11 14:30:01;;;;;;;4.17;3.33;;;;;;;;;;5040832;28;20505;-88
2021/05/11 14:32:28;;;;;;;4.73;4.33;;;;;;;;;;5050223;28;20495;-86
2021/05/11 14:34:54;;;;;;;4.47;4.07;;;;;;;;;;5049933;28;20465;-89
2021/05/11 14:37:21;;;;;;;4.90;4.50;;;;;;;;;;5050983;28;20522;-88
2021/05/11 14:39:47;;;;;;;5.20;4.70;;;;;;;;;;5050251;28;20457;-88
2021/05/11 14:42:14;;;;;;;6.00;4.43;;;;;;;;;;5049081;28;20431;-88
2021/05/11 14:44:42;;;;;;;5.47;4.90;;;13.50;99.90;;;;;;5046003;28;20600;-89
2021/05/11 14:47:08;;;;;;;4.03;3.60;;;;;;;;;;5041572;28;20482;-90
2021/05/11 14:49:35;;;;;;;5.27;4.60;;;;;;;;;;5039300;28;20482;-90
2021/05/11 14:52:01;;;;;;;4.30;3.90;;;;;;;;;;5038255;28;20526;-89
2021/05/11 14:54:28;;;;;;;5.20;4.13;;;;;;;;;;5038419;28;20824;-88
2021/05/11 14:56:55;;;;;;;5.63;4.13;;;;;;;;;;5038836;28;20526;-92
2021/05/11 14:59:21;;;;;;;4.10;3.30;;;;;;;;;;5043521;28;20454;-91
2021/05/11 15:01:48;;;;;;;4.80;3.50;;;13.30;99.90;;;;;;5048955;28;20454;-91
2021/05/11 15:04:15;;;;;;;5.87;4.00;;;;;;;;;;5041909;28;20447;-89
2021/05/11 15:06:42;;;;;;;5.57;3.57;;;;;;;;;;5040226;28;20605;-91
2021/05/11 15:09:08;;;;;;;5.10;3.77;;;;;;;;;;5036741;28;20451;-89
2021/05/11 15:11:35;;;;;;;3.63;3.13;;;;;;;;;;5036036;28;20620;-91
2021/05/11 15:14:02;;;;;;;2.97;2.67;;;;;;;;;;5034919;28;20478;-90
2021/05/11 15:16:31;;;;;;;3.60;2.93;;;13.30;99.90;;;;;;5034090;28;20447;-88
2021/05/11 15:18:58;;;;;;;3.30;2.73;;;13.20;99.90;;;;;;5035774;28;20863;-89
2021/05/11 15:21:25;;;;;;;2.90;2.60;;;;;;;;;;5036146;28;20470;-91
2021/05/11 15:23:51;;;;;;;3.70;2.60;;;12.90;99.90;;;;;;5035839;28;20509;-90
2021/05/11 15:26:18;;;;;;;2.00;1.50;;;;;;;;;;5035898;28;20435;-90
2021/05/11 15:28:45;;;;;;;1.60;1.30;;;;;;;;;;5034408;28;20517;-92
2021/05/11 15:31:11;;;;;;;2.30;1.10;;;;;;;;;;5034557;28;20495;-88
2021/05/11 15:33:38;;;;;;;1.87;1.50;;;;;;;;;;5035201;28;20519;-90
2021/05/11 15:36:07;;;;;;;1.83;0.97;;;12.90;99.90;;;;;;5036864;28;20542;-90
2021/05/11 15:38:33;;;;;;;1.53;1.13;;;;;;;;;;5036071;28;20848;-92
2021/05/11 15:41:00;;;;;;;1.57;0.63;;;;;;;;;;5035042;28;20490;-90
2021/05/11 15:43:26;;;;;;;2.40;0.87;;;;;;;;;;5035274;28;20463;-89
2021/05/11 15:45:53;;;;;;;2.37;0.80;;;;;;;;;;5042109;28;20474;-89
2021/05/11 15:48:20;;;;;;;1.60;0.60;;;;;;;;;;5040879;28;20538;-88
2021/05/11 15:50:47;;;;;;;1.17;0.80;;;;;;;;;;5040623;28;20982;-89
2021/05/11 15:53:16;;;;;;;1.53;0.80;;;12.40;99.90;;;;;;5036740;28;20476;-89
2021/05/11 15:55:44;;;;;;;1.03;0.80;;;12.40;99.90;;;;;;5038651;28;20456;-90
2021/05/11 15:58:12;;;;;;;3.70;2.50;;;12.30;99.90;;;;;;5037067;28;20838;-89
2021/05/11 16:00:41;;;;;;;2.50;1.90;;;12.30;99.90;;;;;;5036392;28;20436;-89
2021/05/11 16:03:08;;;;;;;3.00;1.60;;;;;;;;;;5036365;28;20448;-89
2021/05/11 16:05:37;;;;;;;2.63;0.97;;;12.20;99.90;;;;;;5035243;28;20522;-89
2021/05/11 16:08:03;;;;;;;1.20;0.70;;;;;;;;;;5036175;28;20463;-91
2021/05/11 16:10:31;;;;;;;2.20;0.80;;;12.20;99.90;;;;;;5035923;28;20451;-90
2021/05/11 16:12:58;;;;;;;1.73;1.03;;;;;;;;;;5013592;28;20532;-90
2021/05/11 16:15:25;;;;;;;0.90;0.70;;;;;;;;;;5015182;28;21013;-90
2021/05/11 16:17:52;;;;;;;0.70;0.50;;;;;;;;;;5016200;28;20456;-91
2021/05/11 16:20:19;;;;;;;1.47;0.90;;;;;;;;;;5016851;28;20942;-90
2021/05/11 16:22:45;;;;;;;1.53;0.70;;;;;;;;;;5014990;28;20441;-88
2021/05/11 16:25:13;;;;;;;1.27;0.70;;;12.10;99.90;;;;;;5016406;28;20437;-90
2021/05/11 16:27:42;;;;;;;1.70;0.83;;;12.10;99.90;;;;;;5017100;28;20546;-90
2021/05/11 16:30:10;;;;;;;1.10;0.70;;;12.20;99.90;;;;;;5028658;28;20528;-90
2021/05/11 16:32:37;;;;;;;0.70;0.63;;;;;;;;;;5043630;28;20483;-91
2021/05/11 16:35:04;;;;;;;0.90;0.60;;;12.50;99.90;;;;;;5039799;28;20455;-89
2021/05/11 16:37:31;;;;;;;2.10;0.80;;;;;;;;;;5039325;28;20458;-90
2021/05/11 16:39:57;;;;;;;1.13;0.83;;;;;;;;;;5038805;28;20946;-89
2021/05/11 16:42:24;;;;;;;2.03;0.90;;;;;;;;;;5039353;28;20444;-89
2021/05/11 16:44:52;;;;;;;2.90;0.60;;;12.10;99.90;;;;;;5040559;28;20490;-89
2021/05/11 16:47:18;;;;;;;2.10;0.87;;;;;;;;;;5039284;28;20483;-89
2021/05/11 16:49:45;;;;;;;1.00;0.90;;;;;;;;;;5039427;28;20862;-88
2021/05/11 16:52:13;;;;;;;1.10;0.90;;;;;;;;;;5041034;28;20498;-90
2021/05/11 16:54:39;;;;;;;1.93;1.80;;;;;;;;;;5041221;28;20447;-89
2021/05/11 16:57:06;;;;;;;1.47;0.90;;;;;;;;;;5040467;28;20835;-89
2021/05/11 16:59:33;;;;;;;1.00;0.80;;;;;;;;;;5039084;28;20444;-87
2021/05/11 17:02:03;;;;;;;1.67;0.97;;;12.10;99.90;;;;;;5040991;28;20452;-89
2021/05/11 17:04:30;;;;;;;1.83;1.40;;;;;;;;;;5039048;28;20444;-90
2021/05/11 17:06:57;;;;;;;2.50;1.63;;;;;;;;;;5036664;28;20475;-91
2021/05/11 17:09:23;;;;;;;2.40;1.77;;;;;;;;;;5040463;28;20448;-89